Time;durP1;ratioP1;P1;durP2;ratioP2;P2;SDS_P1;SDS_P2;PMS_P1;PMS_P2;Temp;Humidity;BMP_temperature;BMP_pressure;BME280_temperature;BME280_humidity;BME280_pressure;Samples;Min_cycle;Max_cycle;Signal;HPM_P1;HPM_P2
2024/04/03 00:01:49;;;;;;;0.60;0.60;;;;;;;9.10;75.78;97968.05;109269;1254;71594;-73
2024/04/03 00:04:17;;;;;;;0.70;0.70;;;;;;;9.07;75.56;97980.20;109269;1254;69078;-73
2024/04/03 00:06:44;;;;;;;0.50;0.50;;;;;;;9.15;75.46;97968.79;109001;1254;71122;-71
2024/04/03 00:09:12;;;;;;;1.00;0.80;;;;;;;9.17;75.39;97968.84;107235;1257;59586;-75
2024/04/03 00:11:39;;;;;;;0.80;0.80;;;;;;;9.13;75.12;97969.24;107074;1259;59972;-74
2024/04/03 00:14:07;;;;;;;1.70;0.60;;;;;;;9.07;74.42;97983.98;107828;1254;74520;-73
2024/04/03 00:16:34;;;;;;;0.60;0.60;;;;;;;9.06;74.25;97981.95;107849;1254;69364;-71
2024/04/03 00:19:01;;;;;;;0.70;0.70;;;;;;;9.11;74.04;97978.53;107769;1254;71510;-77
2024/04/03 00:21:29;;;;;;;0.70;0.70;;;;;;;9.08;73.93;97975.67;107674;1254;60316;-79
2024/04/03 00:23:56;;;;;;;1.10;0.80;;;;;;;9.02;74.21;97984.05;107833;1254;59766;-78
2024/04/03 00:26:23;;;;;;;0.70;0.70;;;;;;;8.99;74.13;97988.29;107838;1254;72633;-77
2024/04/03 00:28:50;;;;;;;1.30;0.70;;;;;;;9.05;74.20;98007.37;108309;1254;69180;-78
2024/04/03 00:31:18;;;;;;;0.70;0.70;;;;;;;9.08;73.84;97990.38;108663;1254;72178;-78
2024/04/03 00:33:46;;;;;;;1.30;0.60;;;;;;;9.05;74.15;97993.40;108499;1260;59193;-75
2024/04/03 00:36:13;;;;;;;0.80;0.70;;;;;;;9.02;74.91;97996.77;108757;1254;60418;-77
2024/04/03 00:38:40;;;;;;;0.70;0.70;;;;;;;9.04;75.50;98000.53;108927;1254;72550;-78
2024/04/03 00:41:07;;;;;;;0.80;0.60;;;;;;;9.11;75.16;98002.99;108860;1254;68856;-79
2024/04/03 00:43:36;;;;;;;1.00;0.70;;;;;;;9.07;75.13;98004.08;108837;1254;71575;-79
2024/04/03 00:46:04;;;;;;;1.10;0.80;;;;;;;8.99;75.79;98013.42;108800;1254;61260;-81
2024/04/03 00:48:31;;;;;;;3.70;0.80;;;;;;;8.97;76.05;98003.80;108695;1254;60570;-77
2024/04/03 00:51:00;;;;;;;2.40;0.70;;;;;;;9.01;75.82;98010.41;108663;1254;73869;-77
2024/04/03 00:53:28;;;;;;;1.80;0.70;;;;;;;8.97;75.66;98014.36;108593;1254;69326;-78
2024/04/03 00:55:55;;;;;;;1.20;0.80;;;;;;;8.92;75.69;98015.05;108489;1254;71232;-82
2024/04/03 00:58:23;;;;;;;0.70;0.70;;;;;;;8.92;75.93;98019.70;108781;1252;60411;-79
2024/04/03 01:00:50;;;;;;;0.80;0.70;;;;;;;8.99;75.52;98023.08;108748;1254;59745;-78
2024/04/03 01:03:17;;;;;;;0.80;0.80;;;;;;;9.03;75.17;98026.84;108768;1253;73427;-76
2024/04/03 01:05:44;;;;;;;1.40;0.90;;;;;;;8.99;74.99;98027.29;108716;1254;69284;-79
2024/04/03 01:08:11;;;;;;;0.80;0.60;;;;;;;8.96;75.15;98034.93;107843;1254;71949;-77
2024/04/03 01:10:39;;;;;;;1.30;0.80;;;;;;;9.01;75.42;98041.59;108309;1254;61311;-76
2024/04/03 01:13:06;;;;;;;1.00;0.80;;;;;;;9.09;75.18;98042.36;108861;1254;60539;-76
2024/04/03 01:15:33;;;;;;;0.70;0.70;;;;;;;9.08;75.14;98052.94;108890;1253;74832;-78
2024/04/03 01:18:00;;;;;;;0.80;0.80;;;;;;;9.04;75.34;98053.87;108202;1256;69122;-78
2024/04/03 01:20:28;;;;;;;0.90;0.80;;;;;;;9.03;75.12;98060.79;106479;1257;75301;-78
2024/04/03 01:22:55;;;;;;;0.70;0.70;;;;;;;9.09;75.02;98062.60;106369;1254;62078;-76
2024/04/03 01:25:22;;;;;;;0.70;0.70;;;;;;;9.17;74.86;98069.31;107606;1253;61466;-79
2024/04/03 01:28:05;;;;;;;0.70;0.70;;;;;;;9.16;74.92;98072.08;108696;1254;73413;-75
2024/04/03 01:30:33;;;;;;;0.70;0.70;;;;;;;9.14;74.87;98086.05;108863;1254;68702;-77
2024/04/03 01:33:02;;;;;;;1.60;0.70;;;;;;;9.11;75.17;98083.73;108524;1253;71405;-77
2024/04/03 01:35:31;;;;;;;1.00;0.90;;;;;;;9.16;75.01;98086.46;106910;1253;62170;-77
2024/04/03 01:37:59;;;;;;;1.90;1.00;;;;;;;9.17;75.10;98088.88;108401;1254;59830;-78
2024/04/03 01:40:26;;;;;;;0.90;0.90;;;;;;;9.15;75.43;98096.61;108820;1254;73381;-76
2024/04/03 01:42:53;;;;;;;0.90;0.90;;;;;;;9.12;75.70;98100.55;108990;1254;68691;-77
2024/04/03 01:45:21;;;;;;;0.80;0.80;;;;;;;9.15;75.85;98104.03;106666;1258;73995;-76
2024/04/03 01:47:48;;;;;;;1.30;1.00;;;;;;;9.22;75.69;98113.52;106071;1256;61183;-74
2024/04/03 01:50:20;;;;;;;1.10;1.00;;;;;;;9.22;75.59;98110.25;105987;1254;60104;-76
2024/04/03 01:52:47;;;;;;;1.10;0.80;;;;;;;9.18;75.73;98121.85;106172;1254;73441;-77
2024/04/03 01:55:14;;;;;;;0.90;0.90;;;;;;;9.15;75.71;98117.52;106393;1254;70291;-76
2024/04/03 01:57:42;;;;;;;1.10;0.80;;;;;;;9.16;75.90;98123.35;106659;1255;71307;-77
2024/04/03 02:00:09;;;;;;;1.00;0.90;;;;;;;9.20;75.68;98123.00;107969;1254;59461;-78
2024/04/03 02:02:36;;;;;;;1.20;0.90;;;;;;;9.16;75.24;98119.64;106328;1254;61282;-78
2024/04/03 02:05:04;;;;;;;1.00;0.90;;;;;;;9.13;75.16;98129.79;106128;1254;74672;-77
2024/04/03 02:07:31;;;;;;;0.90;0.80;;;;;;;9.13;74.83;98128.64;106119;1254;68683;-76
2024/04/03 02:09:59;;;;;;;7.10;1.00;;;;;;;9.19;74.20;98125.23;105965;1259;71478;-78
2024/04/03 02:12:26;;;;;;;2.70;1.00;;;;;;;9.18;74.21;98127.69;106207;1256;61222;-79
2024/04/03 02:14:54;;;;;;;2.10;1.10;;;;;;;9.13;74.48;98128.48;106505;1259;61183;-78
2024/04/03 02:17:21;;;;;;;1.10;1.00;;;;;;;9.09;74.05;98138.57;106398;1253;76825;-74
2024/04/03 02:19:49;;;;;;;2.30;1.00;;;;;;;9.05;73.69;98137.87;106325;1260;69741;-76
2024/04/03 02:22:16;;;;;;;1.60;1.30;;;;;;;9.12;73.92;98141.92;107021;1253;71430;-76
2024/04/03 02:24:43;;;;;;;1.20;0.90;;;;;;;9.11;73.67;98141.19;106982;1254;61223;-76
2024/04/03 02:27:11;;;;;;;1.00;0.90;;;;;;;9.06;73.81;98150.79;106405;1254;63153;-77
2024/04/03 02:29:38;;;;;;;0.80;0.80;;;;;;;9.00;73.75;98146.58;106942;1254;74674;-77
2024/04/03 02:32:05;;;;;;;1.40;0.80;;;;;;;8.97;73.96;98150.20;107984;1259;68729;-76
2024/04/03 02:34:33;;;;;;;1.40;1.00;;;;;;;9.04;73.58;98147.33;106225;1259;71186;-78
2024/04/03 02:37:00;;;;;;;1.10;1.00;;;;;;;9.07;73.39;98150.71;106410;1259;61412;-81
2024/04/03 02:39:30;;;;;;;1.60;0.90;;;;;;;9.02;73.76;98150.92;106212;1259;61104;-78
2024/04/03 02:41:57;;;;;;;1.40;0.90;;;;;;;8.97;73.29;98158.60;105960;1254;73513;-80
2024/04/03 02:44:24;;;;;;;2.40;1.30;;;;;;;8.91;73.66;98160.16;106128;1256;68923;-79
2024/04/03 02:46:52;;;;;;;0.70;0.70;;;;;;;8.96;73.65;98169.77;106138;1256;72559;-76
2024/04/03 02:49:19;;;;;;;1.10;1.00;;;;;;;8.99;73.37;98170.75;106209;1259;61400;-78
2024/04/03 02:51:46;;;;;;;1.40;1.10;;;;;;;8.94;74.07;98174.60;106310;1254;61910;-76
2024/04/03 02:54:14;;;;;;;2.00;1.10;;;;;;;8.85;73.80;98181.89;108330;1256;75715;-76
2024/04/03 02:56:41;;;;;;;1.50;1.00;;;;;;;8.81;74.46;98185.48;108008;1253;68735;-80
2024/04/03 02:59:08;;;;;;;1.40;1.00;;;;;;;8.86;74.33;98177.41;106313;1254;72482;-81
2024/04/03 03:01:36;;;;;;;1.30;1.20;;;;;;;8.86;74.20;98186.22;106345;1256;61218;-78
2024/04/03 03:04:03;;;;;;;2.00;1.20;;;;;;;8.80;74.65;98188.88;106177;1254;61131;-78
2024/04/03 03:06:30;;;;;;;1.40;1.10;;;;;;;8.74;74.96;98189.82;106291;1254;75036;-76
2024/04/03 03:08:58;;;;;;;1.50;1.00;;;;;;;8.76;75.05;98187.41;106425;1259;69297;-74
2024/04/03 03:11:25;;;;;;;2.20;1.00;;;;;;;8.79;75.11;98195.30;106166;1256;73524;-75
2024/04/03 03:13:52;;;;;;;1.40;1.10;;;;;;;8.72;75.29;98193.06;106204;1253;61304;-76
2024/04/03 03:16:20;;;;;;;1.30;1.10;;;;;;;8.66;75.42;98206.05;106062;1254;61396;-78
2024/04/03 03:18:48;;;;;;;1.60;1.10;;;;;;;8.63;75.84;98199.06;105478;1254;73332;-74
2024/04/03 03:21:16;;;;;;;7.80;1.50;;;;;;;8.69;75.88;98202.65;106008;1262;69154;-77
2024/04/03 03:23:43;;;;;;;2.40;1.20;;;;;;;8.64;76.03;98205.27;105869;1261;72434;-78
2024/04/03 03:26:10;;;;;;;1.30;1.20;;;;;;;8.54;76.39;98202.17;106356;1257;62804;-80
2024/04/03 03:28:38;;;;;;;2.00;1.40;;;;;;;8.53;76.69;98205.91;106689;1256;61256;-78
2024/04/03 03:31:05;;;;;;;1.80;1.30;;;;;;;8.57;76.76;98209.90;106030;1254;74625;-76
2024/04/03 03:33:32;;;;;;;2.00;1.40;;;;;;;8.53;76.83;98207.95;106186;1258;68712;-77
2024/04/03 03:36:00;;;;;;;1.70;1.30;;;;;;;8.44;77.08;98214.16;106157;1254;71399;-77
2024/04/03 03:38:27;;;;;;;2.20;1.90;;;;;;;8.43;77.58;98222.77;106072;1254;61215;-77
2024/04/03 03:40:54;;;;;;;2.00;1.50;;;;;;;8.48;77.40;98221.27;106086;1254;61356;-81
2024/04/03 03:43:21;;;;;;;4.20;2.60;;;;;;;8.44;77.26;98231.14;106099;1259;74672;-80
2024/04/03 03:45:52;;;;;;;4.20;2.80;;;;;;;8.37;77.78;98239.60;106201;1254;71448;-81
2024/04/03 03:52:35;;;;;;;2.40;1.90;;;;;;;8.39;77.88;98224.17;107173;1254;71402;-79
2024/04/03 03:54:01;;;;;;;3.00;2.00;;;;;;;8.37;78.03;98233.36;107565;1254;61294;-79
2024/04/03 03:56:28;;;;;;;4.70;2.10;;;;;;;8.36;78.40;98238.11;106280;1257;74722;-79
2024/04/03 03:59:01;;;;;;;2.60;1.60;;;;;;;8.42;78.20;98245.68;106236;1260;72741;-81
2024/04/03 04:01:29;;;;;;;3.20;1.80;;;;;;;8.41;78.31;98251.78;106310;1260;71368;-80
2024/04/03 04:03:56;;;;;;;3.40;2.00;;;;;;;8.32;78.81;98259.38;106297;1257;61465;-79
2024/04/03 04:06:23;;;;;;;3.60;1.80;;;;;;;8.36;78.96;98254.36;106330;1254;61291;-77
2024/04/03 04:08:50;;;;;;;3.90;2.10;;;;;;;8.40;78.91;98264.75;106597;1254;74632;-81
2024/04/03 04:11:18;;;;;;;2.80;2.20;;;;;;;8.36;79.06;98263.52;108443;1254;69051;-77
2024/04/03 04:13:45;;;;;;;3.00;2.00;;;;;;;8.32;79.63;98257.33;108119;1257;71845;-78
2024/04/03 04:16:12;;;;;;;4.60;2.20;;;;;;;8.39;79.45;98262.21;108408;1254;60524;-78
2024/04/03 04:18:40;;;;;;;3.80;2.40;;;;;;;8.40;79.59;98271.47;108565;1254;58856;-78
2024/04/03 04:21:07;;;;;;;3.60;2.70;;;;;;;8.34;79.96;98261.14;107179;1254;73619;-78
2024/04/03 04:23:34;;;;;;;4.00;2.60;;;;;;;8.37;80.29;98261.30;106125;1259;69335;-77
2024/04/03 04:26:03;;;;;;;4.70;2.90;;;;;;;8.43;80.08;98262.39;106345;1255;71738;-78
2024/04/03 04:28:31;;;;;;;4.20;2.80;;;;;;;8.43;80.07;98252.79;106270;1254;61352;-80
2024/04/03 04:31:00;;;;;;;4.00;3.00;;;;;;;8.39;80.33;98252.90;107059;1254;61237;-78
2024/04/03 04:33:28;;;;;;;3.00;2.70;;;;;;;8.45;80.51;98257.60;106541;1259;74654;-78
2024/04/03 04:35:56;;;;;;;5.80;3.00;;;;;;;8.53;80.34;98266.88;106267;1254;70045;-82
2024/04/03 04:38:24;;;;;;;4.30;3.20;;;;;;;8.55;80.46;98266.85;106251;1255;71476;-79
2024/04/03 04:40:59;;;;;;;3.70;2.90;;;;;;;8.54;80.72;98270.18;106192;1254;61960;-79
2024/04/03 04:43:27;;;;;;;4.30;2.80;;;;;;;8.62;80.53;98276.36;106498;1254;61219;-80
2024/04/03 04:46:12;;;;;;;5.20;3.30;;;;;;;8.65;80.35;98267.47;108228;1253;73373;-80
2024/04/03 04:48:41;;;;;;;3.90;3.50;;;;;;;8.69;80.58;98271.48;108853;1253;70346;-80
2024/04/03 04:51:08;;;;;;;6.70;3.60;;;;;;;8.78;79.93;98271.20;107214;1258;71487;-82
2024/04/03 04:53:35;;;;;;;5.40;3.30;;;;;;;8.81;79.99;98276.47;106598;1258;61377;-80
2024/04/03 04:56:04;;;;;;;3.50;3.20;;;;;;;8.86;80.02;98277.48;106148;1254;61241;-80
2024/04/03 04:58:31;;;;;;;4.40;3.40;;;;;;;9.00;79.66;98279.58;106246;1259;74576;-79
2024/04/03 05:01:08;;;;;;;4.80;3.70;;;;;;;9.06;79.25;98294.92;106289;1256;68810;-81
2024/04/03 05:03:36;;;;;;;4.30;3.60;;;;;;;9.09;79.21;98282.44;105832;1262;71879;-81
2024/04/03 05:06:03;;;;;;;3.90;3.40;;;;;;;9.19;78.76;98287.55;106130;1257;62233;-81
2024/04/03 05:08:31;;;;;;;8.60;4.20;;;;;;;9.28;78.71;98284.60;106217;1257;61369;-78
2024/04/03 05:10:58;;;;;;;4.60;3.80;;;;;;;9.27;78.41;98280.19;106257;1259;73292;-80
2024/04/03 05:13:28;;;;;;;4.40;4.00;;;;;;;9.23;78.48;98294.59;106666;1259;69007;-79
2024/04/03 05:15:56;;;;;;;5.30;3.50;;;;;;;9.28;78.69;98316.92;106756;1254;72655;-81
2024/04/03 05:18:23;;;;;;;5.00;3.40;;;;;;;9.38;78.16;98301.20;106931;1254;61267;-81
2024/04/03 05:20:51;;;;;;;3.90;3.50;;;;;;;9.38;77.90;98330.39;106379;1254;60665;-81
2024/04/03 05:23:18;;;;;;;4.20;3.50;;;;;;;9.38;78.11;98320.73;108485;1253;77251;-81
2024/04/03 05:25:45;;;;;;;4.60;3.30;;;;;;;9.46;77.61;98326.20;108327;1254;69194;-81
2024/04/03 05:28:17;;;;;;;3.90;3.50;;;;;;;9.53;77.80;98318.27;106824;1259;71704;-81
2024/04/03 05:30:45;;;;;;;7.00;4.20;;;;;;;9.51;77.60;98327.49;106819;1258;61098;-79
2024/04/03 05:33:12;;;;;;;7.10;3.50;;;;;;;9.50;77.90;98320.30;106826;1257;61432;-81
2024/04/03 05:35:40;;;;;;;4.30;3.50;;;;;;;9.58;77.77;98324.55;107013;1259;76716;-82
2024/04/03 05:38:07;;;;;;;4.80;3.30;;;;;;;9.61;77.48;98327.95;107960;1257;70390;-82
2024/04/03 05:40:34;;;;;;;4.80;3.60;;;;;;;9.58;77.53;98334.58;107107;1257;74159;-83
2024/04/03 05:43:02;;;;;;;6.00;3.80;;;;;;;9.56;77.23;98347.95;108805;1253;62683;-82
2024/04/03 05:45:29;;;;;;;4.20;3.40;;;;;;;9.69;76.84;98333.21;108829;1254;61244;-81
2024/04/03 05:47:58;;;;;;;6.50;4.50;;;;;;;9.75;76.31;98337.61;106739;1254;73934;-81
2024/04/03 05:50:26;;;;;;;4.50;3.80;;;;;;;9.73;76.00;98342.90;106657;1254;70467;-82
2024/04/03 05:52:54;;;;;;;8.20;3.10;;;;;;;9.75;76.03;98343.70;106452;1257;72742;-81
2024/04/03 05:55:21;;;;;;;6.40;3.50;;;;;;;9.88;75.41;98341.05;106483;1259;61228;-82
2024/04/03 05:57:49;;;;;;;6.40;3.70;;;;;;;9.95;75.35;98354.10;106540;1253;61192;-82
2024/04/03 06:00:16;;;;;;;4.70;3.80;;;;;;;9.98;74.89;98360.96;106293;1253;74820;-81
2024/04/03 06:02:43;;;;;;;11.00;3.60;;;;;;;9.99;74.69;98367.91;106363;1254;69048;-80
2024/04/03 06:05:11;;;;;;;6.20;3.00;;;;;;;10.03;74.30;98362.90;106144;1256;71604;-79
2024/04/03 06:07:39;;;;;;;6.20;3.30;;;;;;;10.14;73.85;98362.02;106351;1254;61228;-80
2024/04/03 06:10:06;;;;;;;5.40;3.50;;;;;;;10.17;73.74;98369.95;106322;1253;61403;-80
2024/04/03 06:12:34;;;;;;;5.40;3.60;;;;;;;10.17;73.27;98368.23;105820;1260;74797;-81
2024/04/03 06:15:01;;;;;;;4.30;3.50;;;;;;;10.18;73.28;98376.85;106118;1258;70519;-81
2024/04/03 06:17:29;;;;;;;5.20;3.10;;;;;;;10.23;72.96;98374.00;106479;1254;73196;-83
2024/04/03 06:19:57;;;;;;;4.00;3.10;;;;;;;10.34;72.44;98383.72;107961;1254;61162;-84
2024/04/03 06:22:24;;;;;;;5.90;3.60;;;;;;;10.37;72.15;98375.39;107106;1254;61642;-82
2024/04/03 06:24:51;;;;;;;6.50;3.50;;;;;;;10.38;72.05;98380.20;106596;1254;77056;-84
2024/04/03 06:27:19;;;;;;;5.20;3.40;;;;;;;10.36;71.46;98388.97;106625;1254;69209;-82
2024/04/03 06:29:46;;;;;;;6.10;3.20;;;;;;;10.33;71.49;98386.89;106719;1254;73858;-82
2024/04/03 06:32:13;;;;;;;7.90;3.40;;;;;;;10.34;71.56;98392.11;106436;1261;61310;-82
2024/04/03 06:34:41;;;;;;;4.70;3.20;;;;;;;10.43;71.27;98383.41;106443;1254;61489;-80
2024/04/03 06:37:08;;;;;;;5.30;3.70;;;;;;;10.53;71.08;98383.71;106415;1254;74823;-79
2024/04/03 06:39:39;;;;;;;4.70;3.20;;;;;;;10.58;70.47;98370.56;108516;1254;71321;-83
2024/04/03 06:42:06;;;;;;;3.50;2.90;;;;;;;10.61;69.81;98378.62;108403;1254;71999;-80
2024/04/03 06:44:37;;;;;;;5.90;3.10;;;;;;;10.65;68.87;98384.35;106581;1254;61164;-80
2024/04/03 06:47:05;;;;;;;5.60;3.10;;;;;;;10.69;69.00;98372.29;106572;1259;61337;-80
2024/04/03 06:49:32;;;;;;;4.00;2.80;;;;;;;10.72;68.79;98377.65;106167;1262;75387;-81
2024/04/03 06:52:00;;;;;;;4.70;2.90;;;;;;;10.76;67.84;98377.14;106384;1258;70364;-80
2024/04/03 06:54:28;;;;;;;4.70;3.00;;;;;;;10.77;67.52;98389.19;106528;1254;71695;-78
2024/04/03 06:56:55;;;;;;;5.30;3.40;;;;;;;10.78;67.86;98378.27;106203;1257;61107;-78
2024/04/03 06:59:23;;;;;;;3.70;3.30;;;;;;;10.83;67.56;98378.41;106387;1254;61200;-80
2024/04/03 07:01:50;;;;;;;4.60;3.10;;;;;;;10.90;67.43;98375.88;106072;1263;77513;-77
2024/04/03 07:04:18;;;;;;;5.00;3.10;;;;;;;11.00;67.44;98372.13;106386;1254;71859;-79
2024/04/03 07:06:45;;;;;;;6.70;3.70;;;;;;;11.08;66.18;98383.58;106218;1260;72926;-74
2024/04/03 07:09:12;;;;;;;4.30;3.20;;;;;;;11.15;66.20;98384.56;106052;1254;61268;-77
2024/04/03 07:11:40;;;;;;;6.00;3.30;;;;;;;11.23;66.04;98395.14;106175;1254;61284;-77
2024/04/03 07:14:07;;;;;;;5.90;3.00;;;;;;;11.29;65.46;98398.23;106209;1259;74953;-81
2024/04/03 07:16:35;;;;;;;3.70;3.10;;;;;;;11.38;65.13;98401.06;106266;1254;70455;-78
2024/04/03 07:19:02;;;;;;;6.50;3.50;;;;;;;11.45;64.22;98412.30;106463;1255;72400;-78
2024/04/03 07:21:32;;;;;;;6.70;3.00;;;;;;;11.52;64.81;98409.55;106296;1257;61525;-76
2024/04/03 07:24:00;;;;;;;3.20;2.70;;;;;;;11.64;64.83;98417.80;106072;1254;61660;-77
2024/04/03 07:26:27;;;;;;;4.00;2.90;;;;;;;11.76;64.52;98420.82;106194;1254;77043;-79
2024/04/03 07:28:55;;;;;;;5.00;2.80;;;;;;;11.85;64.38;98420.63;106279;1261;72937;-79
2024/04/03 07:31:23;;;;;;;6.40;3.00;;;;;;;11.93;63.77;98426.28;106223;1257;74764;-81
2024/04/03 07:33:50;;;;;;;3.50;2.90;;;;;;;11.93;63.01;98430.91;106959;1254;61247;-81
2024/04/03 07:36:22;;;;;;;6.40;2.50;;;;;;;11.90;63.11;98427.19;108982;1254;61589;-83
2024/04/03 07:38:50;;;;;;;4.00;2.50;;;;;;;11.93;63.16;98429.33;108520;1254;74003;-80
2024/04/03 07:41:24;;;;;;;4.80;3.20;;;;;;;11.96;62.63;98440.29;106516;1257;73164;-79
2024/04/03 07:43:52;;;;;;;3.70;2.40;;;;;;;12.05;62.75;98433.34;106712;1257;74882;-84
2024/04/03 07:46:20;;;;;;;4.70;2.90;;;;;;;12.13;62.70;98439.41;106692;1254;61318;-81
2024/04/03 07:48:47;;;;;;;6.00;2.70;;;;;;;12.18;62.06;98452.66;106882;1254;62531;-80
2024/04/03 07:51:15;;;;;;;4.70;2.50;;;;;;;12.18;61.61;98450.22;106582;1259;75969;-80
2024/04/03 07:53:42;;;;;;;6.00;2.50;;;;;;;12.16;61.51;98443.22;106643;1254;72494;-77
2024/04/03 07:56:13;;;;;;;3.80;2.50;;;;;;;12.14;61.13;98446.98;106464;1258;72658;-80
2024/04/03 07:58:41;;;;;;;5.20;2.20;;;;;;;12.14;60.23;98452.16;106572;1254;61325;-80
2024/04/03 08:01:09;;;;;;;4.40;2.50;;;;;;;12.15;59.95;98448.61;107187;1260;61318;-80
2024/04/03 08:03:37;;;;;;;3.40;2.00;;;;;;;12.23;59.93;98457.77;107555;1254;75729;-79
2024/04/03 08:06:06;;;;;;;3.70;2.30;;;;;;;12.28;59.76;98466.76;107193;1254;71763;-82
2024/04/03 08:08:33;;;;;;;4.40;2.50;;;;;;;12.29;59.18;98471.23;107714;1254;74593;-80
2024/04/03 08:11:01;;;;;;;2.60;2.20;;;;;;;12.27;59.11;98471.35;108779;1254;60984;-81
2024/04/03 08:13:29;;;;;;;3.90;2.20;;;;;;;12.28;58.71;98467.02;107103;1254;61433;-79
2024/04/03 08:16:02;;;;;;;5.70;2.40;;;;;;;12.33;58.71;98478.18;107126;1254;76264;-78
2024/04/03 08:18:30;;;;;;;3.10;1.90;;;;;;;12.37;58.67;98484.06;106839;1254;70713;-81
2024/04/03 08:21:02;;;;;;;3.40;2.50;;;;;;;12.38;58.64;98480.36;106216;1259;74911;-82
2024/04/03 08:23:31;;;;;;;4.30;2.10;;;;;;;12.38;58.72;98480.09;106312;1259;61144;-80
2024/04/03 08:26:06;;;;;;;3.20;2.10;;;;;;;12.41;58.91;98478.92;106034;1256;61246;-81
2024/04/03 08:28:40;;;;;;;4.30;2.10;;;;;;;12.47;59.00;98481.81;106190;1259;76913;-81
2024/04/03 08:31:11;;;;;;;3.40;2.40;;;;;;;12.53;58.88;98490.15;108012;1254;72716;-81
2024/04/03 08:33:38;;;;;;;3.60;2.10;;;;;;;12.58;59.05;98492.92;109070;1254;72701;-79
2024/04/03 08:36:12;;;;;;;3.00;2.10;;;;;;;12.64;58.93;98487.07;107753;1254;59849;-82
2024/04/03 08:38:40;;;;;;;5.90;2.60;;;;;;;12.73;58.38;98475.50;106357;1255;61251;-78
2024/04/03 08:41:07;;;;;;;4.30;2.40;;;;;;;12.82;58.67;98478.00;106342;1254;76853;-77
2024/04/03 08:43:34;;;;;;;4.30;1.90;;;;;;;12.95;58.23;98483.02;106492;1260;70858;-80
2024/04/03 08:46:03;;;;;;;3.50;2.50;;;;;;;13.11;57.65;98491.20;106655;1259;73004;-79
2024/04/03 08:48:31;;;;;;;3.60;2.20;;;;;;;13.25;56.92;98476.19;106367;1258;59967;-78
2024/04/03 08:50:59;;;;;;;4.80;2.20;;;;;;;13.40;56.24;98479.29;106270;1259;222134;-80
2024/04/03 08:54:14;;;;;;;3.70;2.30;;;;;;;13.64;56.13;98487.84;103338;1293;600361;-79
2024/04/03 08:56:42;;;;;;;3.00;1.80;;;;;;;13.76;55.47;98483.39;105737;1270;60169;-76
2024/04/03 08:59:10;;;;;;;4.30;2.00;;;;;;;13.84;54.74;98482.00;105829;1264;60803;-79
2024/04/03 09:01:38;;;;;;;3.60;1.80;;;;;;;13.87;54.32;98485.50;105572;1266;73745;-78
2024/04/03 09:04:05;;;;;;;3.10;1.80;;;;;;;13.87;53.52;98487.80;106155;1253;72614;-80
2024/04/03 09:06:39;;;;;;;4.90;1.70;;;;;;;13.85;53.15;98489.60;105800;1262;73581;-79
2024/04/03 09:09:07;;;;;;;2.50;1.90;;;;;;;13.81;52.67;98482.68;106019;1253;60125;-77
2024/04/03 09:11:34;;;;;;;6.10;2.00;;;;;;;13.80;52.81;98484.02;105997;1253;63116;-79
2024/04/03 09:14:02;;;;;;;3.50;2.20;;;;;;;13.78;52.95;98485.34;106179;1250;75286;-79
2024/04/03 09:16:29;;;;;;;2.90;1.70;;;;;;;13.76;53.23;98491.52;106429;1253;72718;-78
2024/04/03 09:19:06;;;;;;;4.10;1.80;;;;;;;13.72;53.23;98488.09;106516;1250;74677;-80
2024/04/03 09:21:34;;;;;;;2.80;1.70;;;;;;;13.72;53.45;98487.58;106672;1254;60671;-80
2024/04/03 09:24:01;;;;;;;4.10;1.70;;;;;;;13.76;53.19;98488.96;106674;1250;60298;-79
2024/04/03 09:26:29;;;;;;;4.00;1.60;;;;;;;13.83;52.96;98494.87;107580;1250;76127;-79
2024/04/03 09:29:02;;;;;;;3.80;1.80;;;;;;;13.86;52.00;98497.54;109328;1250;69304;-80
2024/04/03 09:31:30;;;;;;;2.00;1.60;;;;;;;13.89;52.06;98500.19;108726;1253;71840;-80
2024/04/03 09:33:57;;;;;;;2.30;1.50;;;;;;;13.88;52.20;98515.46;107517;1250;60643;-80
2024/04/03 09:36:25;;;;;;;3.50;1.80;;;;;;;13.84;52.03;98508.05;107273;1250;60565;-81
2024/04/03 09:38:52;;;;;;;3.70;1.90;;;;;;;13.89;51.92;98496.98;107099;1250;74316;-77
2024/04/03 09:41:19;;;;;;;3.50;1.60;;;;;;;14.12;52.03;98504.19;106581;1251;69778;-78
2024/04/03 09:43:48;;;;;;;5.20;1.50;;;;;;;14.54;51.76;98505.23;106819;1253;73660;-77
2024/04/03 09:46:16;;;;;;;3.30;1.90;;;;;;;15.08;49.14;98508.40;106842;1252;61226;-75
2024/04/03 09:48:44;;;;;;;1.70;1.40;;;;;;;15.50;47.91;98504.23;106300;1252;61236;-77
2024/04/03 09:51:11;;;;;;;3.60;1.60;;;;;;;15.71;47.72;98507.95;106347;1250;76568;-75
2024/04/03 09:53:38;;;;;;;1.70;1.40;;;;;;;15.77;46.99;98492.96;108472;1253;72350;-76
2024/04/03 09:56:06;;;;;;;4.30;1.50;;;;;;;15.86;47.17;98494.58;108869;1253;73901;-77
2024/04/03 09:58:35;;;;;;;3.60;1.80;;;;;;;16.02;46.74;98503.70;109023;1252;61016;-78
2024/04/03 10:01:04;;;;;;;3.10;1.60;;;;;;;16.18;45.78;98496.14;109124;1250;58883;-76
2024/04/03 10:03:34;;;;;;;3.90;1.70;;;;;;;16.33;45.00;98502.98;107032;1254;76252;-79
2024/04/03 10:06:03;;;;;;;3.10;1.60;;;;;;;16.53;44.59;98494.55;106713;1256;71117;-79
2024/04/03 10:08:32;;;;;;;3.50;1.50;;;;;;;16.77;44.37;98489.40;106867;1251;72881;-81
2024/04/03 10:11:04;;;;;;;2.70;1.50;;;;;;;16.95;44.09;98499.98;106977;1251;60518;-78
2024/04/03 10:13:32;;;;;;;1.90;1.40;;;;;;;16.90;43.75;98503.78;106887;1251;61173;-81
2024/04/03 10:16:03;;;;;;;2.40;1.60;;;;;;;16.73;44.24;98510.66;107010;1251;74249;-81
2024/04/03 10:18:35;;;;;;;2.30;1.50;;;;;;;16.59;44.85;98509.46;106860;1251;71228;-79
2024/04/03 10:21:02;;;;;;;3.00;2.00;;;;;;;16.59;45.04;98514.15;106795;1254;74782;-80
2024/04/03 10:23:42;;;;;;;2.00;1.60;;;;;;;16.76;45.23;98516.95;107266;1251;61817;-82
2024/04/03 10:26:32;;;;;;;1.70;1.50;;;;;;;16.78;43.53;98525.52;109231;1251;60969;-79
2024/04/03 10:29:09;;;;;;;3.10;1.30;;;;;;;16.49;43.84;98529.42;108390;1253;74738;-81
2024/04/03 10:31:36;;;;;;;3.40;1.60;;;;;;;16.27;44.48;98525.33;106846;1251;71462;-81
2024/04/03 10:34:04;;;;;;;2.40;1.30;;;;;;;16.36;44.76;98526.64;106875;1256;72032;-78
2024/04/03 10:36:31;;;;;;;5.10;1.40;;;;;;;16.59;44.08;98537.37;106807;1253;60339;-78
2024/04/03 10:38:58;;;;;;;2.70;1.40;;;;;;;16.87;42.69;98540.13;106646;1251;62260;-81
2024/04/03 10:41:25;;;;;;;2.40;1.10;;;;;;;16.94;42.23;98532.94;106531;1253;75076;-79
2024/04/03 10:43:53;;;;;;;2.40;1.20;;;;;;;16.84;42.47;98547.58;106675;1256;71596;-79
2024/04/03 10:46:24;;;;;;;3.20;1.40;;;;;;;16.55;42.95;98546.33;106468;1257;71405;-76
2024/04/03 10:48:58;;;;;;;4.40;1.40;;;;;;;16.32;43.24;98543.27;106543;1258;61075;-77
2024/04/03 10:51:25;;;;;;;1.90;1.10;;;;;;;16.12;43.38;98536.08;106632;1252;62222;-79
2024/04/03 10:53:56;;;;;;;1.60;1.20;;;;;;;16.10;43.80;98543.48;106699;1251;75266;-81
2024/04/03 10:56:25;;;;;;;3.60;1.30;;;;;;;16.17;43.95;98550.12;107695;1259;71441;-80
2024/04/03 10:58:54;;;;;;;3.00;1.20;;;;;;;16.40;43.69;98549.55;107926;1253;73632;-80
2024/04/03 11:01:22;;;;;;;1.80;1.40;;;;;;;16.78;42.71;98560.81;107854;1256;60587;-78
2024/04/03 11:03:52;;;;;;;1.70;1.10;;;;;;;17.20;42.07;98544.47;106830;1251;60491;-77
2024/04/03 11:06:20;;;;;;;3.40;1.50;;;;;;;17.53;42.18;98540.02;106751;1251;74723;-76
2024/04/03 11:08:47;;;;;;;3.80;1.40;;;;;;;17.72;41.35;98544.52;106555;1251;69901;-75
2024/04/03 11:11:16;;;;;;;1.90;1.20;;;;;;;17.65;41.10;98542.67;108925;1252;72891;-76
2024/04/03 11:13:47;;;;;;;2.40;1.30;;;;;;;17.27;41.44;98547.55;109425;1251;58716;-78
2024/04/03 11:16:17;;;;;;;3.60;1.30;;;;;;;16.85;41.91;98544.87;109440;1251;59040;-79
2024/04/03 11:18:44;;;;;;;4.10;1.10;;;;;;;16.49;42.50;98560.38;109165;1253;75245;-79
2024/04/03 11:21:12;;;;;;;2.10;1.30;;;;;;;16.25;43.13;98565.85;109413;1251;71273;-81
2024/04/03 11:23:39;;;;;;;1.30;1.20;;;;;;;16.09;43.51;98562.55;109477;1251;72906;-79
2024/04/03 11:26:09;;;;;;;3.90;1.50;;;;;;;15.97;43.57;98561.40;109328;1251;60580;-80
2024/04/03 11:28:36;;;;;;;5.00;1.20;;;;;;;15.84;44.00;98567.84;108896;1252;59212;-81
2024/04/03 11:31:04;;;;;;;3.30;1.80;;;;;;;15.80;44.29;98563.02;109260;1251;72991;-83
2024/04/03 11:33:31;;;;;;;1.80;1.20;;;;;;;15.79;44.71;98569.70;109294;1252;69426;-83
2024/04/03 11:35:59;;;;;;;1.80;1.20;;;;;;;15.76;45.03;98581.34;109305;1251;73638;-81
2024/04/03 11:38:30;;;;;;;2.20;1.30;;;;;;;15.69;45.28;98578.37;109273;1252;59242;-80